sensor_id;sensor_type;location;lat;lon;timestamp;P1;durP1;ratioP1;P2;durP2;ratioP2
26690;SDS011;14307;51.718;8.938;2022-07-29T00:02:26;22.42;;;20.60;;
26690;SDS011;14307;51.718;8.938;2022-07-29T00:04:53;22.30;;;20.50;;
26690;SDS011;14307;51.718;8.938;2022-07-29T00:07:20;22.15;;;20.40;;
26690;SDS011;14307;51.718;8.938;2022-07-29T00:09:47;21.67;;;20.27;;
26690;SDS011;14307;51.718;8.938;2022-07-29T00:12:17;21.88;;;20.38;;
26690;SDS011;14307;51.718;8.938;2022-07-29T00:14:51;22.40;;;20.50;;
26690;SDS011;14307;51.718;8.938;2022-07-29T00:17:18;21.90;;;20.27;;
26690;SDS011;14307;51.718;8.938;2022-07-29T00:19:45;22.63;;;21.13;;
26690;SDS011;14307;51.718;8.938;2022-07-29T00:22:12;23.15;;;21.15;;
26690;SDS011;14307;51.718;8.938;2022-07-29T00:24:39;22.48;;;20.73;;
26690;SDS011;14307;51.718;8.938;2022-07-29T00:27:05;22.85;;;20.98;;
26690;SDS011;14307;51.718;8.938;2022-07-29T00:29:32;22.67;;;20.83;;
26690;SDS011;14307;51.718;8.938;2022-07-29T00:32:01;22.30;;;20.52;;
26690;SDS011;14307;51.718;8.938;2022-07-29T00:34:29;22.00;;;20.38;;
26690;SDS011;14307;51.718;8.938;2022-07-29T00:37:15;22.65;;;20.75;;
26690;SDS011;14307;51.718;8.938;2022-07-29T00:39:42;22.05;;;20.25;;
26690;SDS011;14307;51.718;8.938;2022-07-29T00:42:09;22.52;;;20.55;;
26690;SDS011;14307;51.718;8.938;2022-07-29T00:44:40;22.42;;;20.63;;
26690;SDS011;14307;51.718;8.938;2022-07-29T00:47:08;22.27;;;20.50;;
26690;SDS011;14307;51.718;8.938;2022-07-29T00:49:36;22.90;;;20.92;;
26690;SDS011;14307;51.718;8.938;2022-07-29T00:52:10;21.75;;;19.83;;
26690;SDS011;14307;51.718;8.938;2022-07-29T00:54:38;22.67;;;20.92;;
26690;SDS011;14307;51.718;8.938;2022-07-29T00:57:10;21.90;;;20.27;;
26690;SDS011;14307;51.718;8.938;2022-07-29T00:59:38;21.92;;;20.15;;
26690;SDS011;14307;51.718;8.938;2022-07-29T01:02:05;21.48;;;20.08;;
26690;SDS011;14307;51.718;8.938;2022-07-29T01:04:31;22.10;;;20.35;;
26690;SDS011;14307;51.718;8.938;2022-07-29T01:07:00;21.30;;;19.77;;
26690;SDS011;14307;51.718;8.938;2022-07-29T01:09:28;21.90;;;20.27;;
26690;SDS011;14307;51.718;8.938;2022-07-29T01:12:13;21.80;;;19.95;;
26690;SDS011;14307;51.718;8.938;2022-07-29T01:14:42;21.33;;;19.73;;
26690;SDS011;14307;51.718;8.938;2022-07-29T01:19:51;21.52;;;19.98;;
26690;SDS011;14307;51.718;8.938;2022-07-29T01:30:04;21.48;;;19.88;;
26690;SDS011;14307;51.718;8.938;2022-07-29T01:32:35;22.42;;;20.33;;
26690;SDS011;14307;51.718;8.938;2022-07-29T01:35:06;21.38;;;19.77;;
26690;SDS011;14307;51.718;8.938;2022-07-29T01:37:38;21.08;;;19.40;;
26690;SDS011;14307;51.718;8.938;2022-07-29T01:40:33;21.63;;;19.77;;
26690;SDS011;14307;51.718;8.938;2022-07-29T01:43:14;22.45;;;20.10;;
26690;SDS011;14307;51.718;8.938;2022-07-29T01:46:03;22.13;;;19.95;;
26690;SDS011;14307;51.718;8.938;2022-07-29T01:51:18;21.10;;;19.70;;
26690;SDS011;14307;51.718;8.938;2022-07-29T01:54:12;21.17;;;19.77;;
26690;SDS011;14307;51.718;8.938;2022-07-29T01:56:43;21.42;;;19.73;;
26690;SDS011;14307;51.718;8.938;2022-07-29T01:59:13;21.02;;;19.48;;
26690;SDS011;14307;51.718;8.938;2022-07-29T02:01:42;21.52;;;19.70;;
26690;SDS011;14307;51.718;8.938;2022-07-29T02:04:10;21.13;;;19.50;;
26690;SDS011;14307;51.718;8.938;2022-07-29T02:06:55;21.90;;;20.10;;
26690;SDS011;14307;51.718;8.938;2022-07-29T02:09:26;20.55;;;19.15;;
26690;SDS011;14307;51.718;8.938;2022-07-29T02:11:54;20.55;;;19.10;;
26690;SDS011;14307;51.718;8.938;2022-07-29T02:14:24;20.92;;;19.33;;
26690;SDS011;14307;51.718;8.938;2022-07-29T02:16:54;20.73;;;19.42;;
26690;SDS011;14307;51.718;8.938;2022-07-29T02:19:24;20.98;;;19.58;;
26690;SDS011;14307;51.718;8.938;2022-07-29T02:21:54;21.85;;;20.00;;
26690;SDS011;14307;51.718;8.938;2022-07-29T02:24:22;21.33;;;19.67;;
26690;SDS011;14307;51.718;8.938;2022-07-29T02:26:51;22.25;;;20.48;;
26690;SDS011;14307;51.718;8.938;2022-07-29T02:29:21;21.60;;;20.02;;
26690;SDS011;14307;51.718;8.938;2022-07-29T02:31:51;21.75;;;20.15;;
26690;SDS011;14307;51.718;8.938;2022-07-29T02:34:20;21.83;;;19.92;;
26690;SDS011;14307;51.718;8.938;2022-07-29T02:36:48;21.40;;;19.65;;
26690;SDS011;14307;51.718;8.938;2022-07-29T02:39:16;21.05;;;19.73;;
26690;SDS011;14307;51.718;8.938;2022-07-29T02:41:48;21.25;;;19.60;;
26690;SDS011;14307;51.718;8.938;2022-07-29T02:44:19;21.45;;;19.85;;
26690;SDS011;14307;51.718;8.938;2022-07-29T02:46:50;21.63;;;19.70;;
26690;SDS011;14307;51.718;8.938;2022-07-29T02:52:01;21.48;;;19.58;;
26690;SDS011;14307;51.718;8.938;2022-07-29T02:54:39;21.45;;;19.67;;
26690;SDS011;14307;51.718;8.938;2022-07-29T02:57:26;20.83;;;19.15;;
26690;SDS011;14307;51.718;8.938;2022-07-29T02:59:59;22.10;;;20.23;;
26690;SDS011;14307;51.718;8.938;2022-07-29T03:02:35;21.67;;;19.98;;
26690;SDS011;14307;51.718;8.938;2022-07-29T03:05:04;20.65;;;19.25;;
26690;SDS011;14307;51.718;8.938;2022-07-29T03:07:36;21.40;;;19.80;;
26690;SDS011;14307;51.718;8.938;2022-07-29T03:10:05;22.35;;;20.65;;
26690;SDS011;14307;51.718;8.938;2022-07-29T03:12:39;22.00;;;20.20;;
26690;SDS011;14307;51.718;8.938;2022-07-29T03:15:07;21.92;;;20.20;;
26690;SDS011;14307;51.718;8.938;2022-07-29T03:17:35;21.10;;;19.80;;
26690;SDS011;14307;51.718;8.938;2022-07-29T03:20:04;21.90;;;20.27;;
26690;SDS011;14307;51.718;8.938;2022-07-29T03:22:32;22.52;;;20.75;;
26690;SDS011;14307;51.718;8.938;2022-07-29T03:25:07;23.17;;;21.17;;
26690;SDS011;14307;51.718;8.938;2022-07-29T03:30:02;22.80;;;21.10;;
26690;SDS011;14307;51.718;8.938;2022-07-29T03:32:33;22.27;;;20.27;;
26690;SDS011;14307;51.718;8.938;2022-07-29T03:35:00;21.85;;;20.23;;
26690;SDS011;14307;51.718;8.938;2022-07-29T03:37:28;21.63;;;20.13;;
26690;SDS011;14307;51.718;8.938;2022-07-29T03:39:56;22.05;;;20.23;;
26690;SDS011;14307;51.718;8.938;2022-07-29T03:42:24;22.08;;;20.30;;
26690;SDS011;14307;51.718;8.938;2022-07-29T03:45:00;21.77;;;19.83;;
26690;SDS011;14307;51.718;8.938;2022-07-29T03:47:31;22.08;;;20.58;;
26690;SDS011;14307;51.718;8.938;2022-07-29T03:52:45;22.40;;;20.45;;
26690;SDS011;14307;51.718;8.938;2022-07-29T03:55:13;23.10;;;21.35;;
26690;SDS011;14307;51.718;8.938;2022-07-29T03:57:41;22.95;;;21.00;;
26690;SDS011;14307;51.718;8.938;2022-07-29T04:00:10;22.90;;;20.90;;
26690;SDS011;14307;51.718;8.938;2022-07-29T04:02:37;22.65;;;20.92;;
26690;SDS011;14307;51.718;8.938;2022-07-29T04:05:05;23.67;;;21.52;;
26690;SDS011;14307;51.718;8.938;2022-07-29T04:07:38;25.10;;;23.20;;
26690;SDS011;14307;51.718;8.938;2022-07-29T04:10:05;23.20;;;21.42;;
26690;SDS011;14307;51.718;8.938;2022-07-29T04:12:32;23.52;;;21.50;;
26690;SDS011;14307;51.718;8.938;2022-07-29T04:14:59;22.67;;;20.92;;
26690;SDS011;14307;51.718;8.938;2022-07-29T04:17:26;22.95;;;21.30;;
26690;SDS011;14307;51.718;8.938;2022-07-29T04:19:53;22.83;;;21.20;;
26690;SDS011;14307;51.718;8.938;2022-07-29T04:22:20;22.33;;;20.65;;
26690;SDS011;14307;51.718;8.938;2022-07-29T04:24:48;22.58;;;21.10;;
26690;SDS011;14307;51.718;8.938;2022-07-29T04:27:14;22.77;;;21.08;;
26690;SDS011;14307;51.718;8.938;2022-07-29T04:29:42;24.25;;;22.73;;
26690;SDS011;14307;51.718;8.938;2022-07-29T04:32:22;26.15;;;24.10;;
26690;SDS011;14307;51.718;8.938;2022-07-29T04:34:53;25.20;;;23.42;;
26690;SDS011;14307;51.718;8.938;2022-07-29T04:37:19;24.85;;;23.05;;
26690;SDS011;14307;51.718;8.938;2022-07-29T04:39:47;24.98;;;23.27;;
26690;SDS011;14307;51.718;8.938;2022-07-29T04:42:13;25.73;;;23.92;;
26690;SDS011;14307;51.718;8.938;2022-07-29T04:44:42;25.33;;;23.20;;
26690;SDS011;14307;51.718;8.938;2022-07-29T04:47:09;25.08;;;23.30;;
26690;SDS011;14307;51.718;8.938;2022-07-29T04:49:39;26.65;;;24.00;;
26690;SDS011;14307;51.718;8.938;2022-07-29T04:52:06;24.77;;;23.05;;
26690;SDS011;14307;51.718;8.938;2022-07-29T04:54:32;24.67;;;22.98;;
26690;SDS011;14307;51.718;8.938;2022-07-29T04:56:59;24.38;;;22.77;;
26690;SDS011;14307;51.718;8.938;2022-07-29T04:59:26;24.65;;;22.52;;
26690;SDS011;14307;51.718;8.938;2022-07-29T05:01:53;25.52;;;23.50;;
26690;SDS011;14307;51.718;8.938;2022-07-29T05:04:20;24.30;;;22.60;;
26690;SDS011;14307;51.718;8.938;2022-07-29T05:06:47;24.20;;;22.40;;
26690;SDS011;14307;51.718;8.938;2022-07-29T05:09:14;24.48;;;22.60;;
26690;SDS011;14307;51.718;8.938;2022-07-29T05:11:40;23.60;;;22.20;;
26690;SDS011;14307;51.718;8.938;2022-07-29T05:14:07;23.35;;;21.65;;
26690;SDS011;14307;51.718;8.938;2022-07-29T05:16:34;23.08;;;21.52;;
26690;SDS011;14307;51.718;8.938;2022-07-29T05:19:01;23.52;;;21.88;;
26690;SDS011;14307;51.718;8.938;2022-07-29T05:21:29;23.73;;;21.67;;
26690;SDS011;14307;51.718;8.938;2022-07-29T05:23:55;23.40;;;21.80;;
26690;SDS011;14307;51.718;8.938;2022-07-29T05:26:23;23.27;;;21.88;;
26690;SDS011;14307;51.718;8.938;2022-07-29T05:28:50;23.75;;;22.05;;
26690;SDS011;14307;51.718;8.938;2022-07-29T05:31:17;23.75;;;22.13;;
26690;SDS011;14307;51.718;8.938;2022-07-29T05:33:43;23.85;;;22.02;;
26690;SDS011;14307;51.718;8.938;2022-07-29T05:36:10;24.23;;;22.23;;
26690;SDS011;14307;51.718;8.938;2022-07-29T05:38:37;25.25;;;23.33;;
26690;SDS011;14307;51.718;8.938;2022-07-29T05:41:04;24.98;;;22.88;;
26690;SDS011;14307;51.718;8.938;2022-07-29T05:43:31;25.40;;;23.48;;
26690;SDS011;14307;51.718;8.938;2022-07-29T05:45:58;25.35;;;23.17;;
26690;SDS011;14307;51.718;8.938;2022-07-29T05:48:25;24.20;;;22.58;;
26690;SDS011;14307;51.718;8.938;2022-07-29T05:50:52;25.67;;;23.60;;
26690;SDS011;14307;51.718;8.938;2022-07-29T05:53:19;26.00;;;24.15;;
26690;SDS011;14307;51.718;8.938;2022-07-29T05:55:47;24.23;;;22.60;;
26690;SDS011;14307;51.718;8.938;2022-07-29T05:58:14;25.63;;;23.27;;
26690;SDS011;14307;51.718;8.938;2022-07-29T06:00:41;25.75;;;23.88;;
26690;SDS011;14307;51.718;8.938;2022-07-29T06:03:08;24.50;;;22.77;;
26690;SDS011;14307;51.718;8.938;2022-07-29T06:05:35;25.45;;;23.67;;
26690;SDS011;14307;51.718;8.938;2022-07-29T06:08:01;25.60;;;23.65;;
26690;SDS011;14307;51.718;8.938;2022-07-29T06:10:29;24.30;;;22.60;;
26690;SDS011;14307;51.718;8.938;2022-07-29T06:12:55;24.98;;;23.27;;
26690;SDS011;14307;51.718;8.938;2022-07-29T06:15:22;25.42;;;23.65;;
26690;SDS011;14307;51.718;8.938;2022-07-29T06:17:49;25.42;;;23.73;;
26690;SDS011;14307;51.718;8.938;2022-07-29T06:20:26;24.80;;;23.00;;
26690;SDS011;14307;51.718;8.938;2022-07-29T06:22:56;24.73;;;23.10;;
26690;SDS011;14307;51.718;8.938;2022-07-29T06:25:23;24.83;;;23.15;;
26690;SDS011;14307;51.718;8.938;2022-07-29T06:27:50;24.60;;;23.00;;
26690;SDS011;14307;51.718;8.938;2022-07-29T06:30:18;24.88;;;23.27;;
26690;SDS011;14307;51.718;8.938;2022-07-29T06:32:45;25.45;;;23.33;;
26690;SDS011;14307;51.718;8.938;2022-07-29T06:35:11;25.77;;;24.08;;
26690;SDS011;14307;51.718;8.938;2022-07-29T06:37:58;25.75;;;23.90;;
26690;SDS011;14307;51.718;8.938;2022-07-29T06:40:25;25.88;;;24.17;;
26690;SDS011;14307;51.718;8.938;2022-07-29T06:43:11;25.55;;;23.88;;
26690;SDS011;14307;51.718;8.938;2022-07-29T06:45:38;24.90;;;23.20;;
26690;SDS011;14307;51.718;8.938;2022-07-29T06:48:07;26.00;;;24.08;;
26690;SDS011;14307;51.718;8.938;2022-07-29T06:50:35;25.98;;;24.27;;
26690;SDS011;14307;51.718;8.938;2022-07-29T06:53:03;24.85;;;23.17;;
26690;SDS011;14307;51.718;8.938;2022-07-29T06:55:29;24.23;;;22.77;;
26690;SDS011;14307;51.718;8.938;2022-07-29T06:57:56;24.45;;;22.90;;
26690;SDS011;14307;51.718;8.938;2022-07-29T07:00:23;24.75;;;22.92;;
26690;SDS011;14307;51.718;8.938;2022-07-29T07:02:50;24.52;;;22.83;;
26690;SDS011;14307;51.718;8.938;2022-07-29T07:05:17;24.38;;;22.60;;
26690;SDS011;14307;51.718;8.938;2022-07-29T07:07:44;24.85;;;22.77;;
26690;SDS011;14307;51.718;8.938;2022-07-29T07:10:10;26.30;;;24.05;;
26690;SDS011;14307;51.718;8.938;2022-07-29T07:12:37;24.70;;;23.00;;
26690;SDS011;14307;51.718;8.938;2022-07-29T07:15:04;24.98;;;23.38;;
26690;SDS011;14307;51.718;8.938;2022-07-29T07:17:32;26.33;;;24.13;;
26690;SDS011;14307;51.718;8.938;2022-07-29T07:19:58;26.13;;;24.17;;
26690;SDS011;14307;51.718;8.938;2022-07-29T07:22:25;26.13;;;24.35;;
26690;SDS011;14307;51.718;8.938;2022-07-29T07:24:52;25.55;;;23.85;;
26690;SDS011;14307;51.718;8.938;2022-07-29T07:27:18;26.10;;;24.17;;
26690;SDS011;14307;51.718;8.938;2022-07-29T07:29:45;26.13;;;24.27;;
26690;SDS011;14307;51.718;8.938;2022-07-29T07:32:12;24.98;;;23.17;;
26690;SDS011;14307;51.718;8.938;2022-07-29T07:34:39;24.70;;;23.02;;
26690;SDS011;14307;51.718;8.938;2022-07-29T07:37:06;25.92;;;23.85;;
26690;SDS011;14307;51.718;8.938;2022-07-29T07:39:33;25.75;;;23.73;;
26690;SDS011;14307;51.718;8.938;2022-07-29T07:42:00;25.67;;;23.50;;
26690;SDS011;14307;51.718;8.938;2022-07-29T07:44:26;24.88;;;23.15;;
26690;SDS011;14307;51.718;8.938;2022-07-29T07:46:53;25.38;;;23.88;;
26690;SDS011;14307;51.718;8.938;2022-07-29T07:49:20;25.88;;;24.10;;
26690;SDS011;14307;51.718;8.938;2022-07-29T07:51:47;25.65;;;23.80;;
26690;SDS011;14307;51.718;8.938;2022-07-29T07:54:16;26.48;;;24.38;;
26690;SDS011;14307;51.718;8.938;2022-07-29T07:56:46;24.95;;;23.45;;
26690;SDS011;14307;51.718;8.938;2022-07-29T07:59:18;25.55;;;23.48;;
26690;SDS011;14307;51.718;8.938;2022-07-29T08:01:45;25.63;;;23.75;;
26690;SDS011;14307;51.718;8.938;2022-07-29T08:04:20;25.25;;;23.58;;
26690;SDS011;14307;51.718;8.938;2022-07-29T08:06:54;25.58;;;23.58;;
26690;SDS011;14307;51.718;8.938;2022-07-29T08:09:21;25.60;;;23.58;;
26690;SDS011;14307;51.718;8.938;2022-07-29T08:11:57;25.27;;;23.15;;
26690;SDS011;14307;51.718;8.938;2022-07-29T08:14:25;25.83;;;23.90;;
26690;SDS011;14307;51.718;8.938;2022-07-29T08:16:51;24.92;;;23.25;;
26690;SDS011;14307;51.718;8.938;2022-07-29T08:19:18;26.10;;;24.13;;
26690;SDS011;14307;51.718;8.938;2022-07-29T08:21:45;24.23;;;22.52;;
26690;SDS011;14307;51.718;8.938;2022-07-29T08:24:11;24.88;;;23.08;;
26690;SDS011;14307;51.718;8.938;2022-07-29T08:29:23;24.58;;;22.83;;
26690;SDS011;14307;51.718;8.938;2022-07-29T08:31:50;24.50;;;22.75;;
26690;SDS011;14307;51.718;8.938;2022-07-29T08:34:17;24.55;;;22.88;;
26690;SDS011;14307;51.718;8.938;2022-07-29T08:36:52;24.75;;;23.00;;
26690;SDS011;14307;51.718;8.938;2022-07-29T08:39:19;23.65;;;22.30;;
26690;SDS011;14307;51.718;8.938;2022-07-29T08:41:46;25.98;;;24.25;;
26690;SDS011;14307;51.718;8.938;2022-07-29T08:44:22;26.27;;;24.13;;
26690;SDS011;14307;51.718;8.938;2022-07-29T08:46:56;26.00;;;24.20;;
26690;SDS011;14307;51.718;8.938;2022-07-29T08:49:23;25.67;;;23.92;;
26690;SDS011;14307;51.718;8.938;2022-07-29T08:51:50;27.02;;;25.15;;
26690;SDS011;14307;51.718;8.938;2022-07-29T08:54:17;28.13;;;26.23;;
26690;SDS011;14307;51.718;8.938;2022-07-29T08:56:47;28.08;;;25.73;;
26690;SDS011;14307;51.718;8.938;2022-07-29T08:59:17;26.25;;;24.73;;
26690;SDS011;14307;51.718;8.938;2022-07-29T09:01:48;28.02;;;26.17;;
26690;SDS011;14307;51.718;8.938;2022-07-29T09:04:19;27.85;;;25.92;;
26690;SDS011;14307;51.718;8.938;2022-07-29T09:06:48;25.52;;;24.02;;
26690;SDS011;14307;51.718;8.938;2022-07-29T09:09:17;24.20;;;22.42;;
26690;SDS011;14307;51.718;8.938;2022-07-29T09:11:44;25.08;;;23.27;;
26690;SDS011;14307;51.718;8.938;2022-07-29T09:14:12;28.08;;;25.95;;
26690;SDS011;14307;51.718;8.938;2022-07-29T09:19:23;26.27;;;24.30;;
26690;SDS011;14307;51.718;8.938;2022-07-29T09:21:57;25.70;;;23.98;;
26690;SDS011;14307;51.718;8.938;2022-07-29T09:27:01;25.63;;;23.80;;
26690;SDS011;14307;51.718;8.938;2022-07-29T09:29:28;25.65;;;23.63;;
26690;SDS011;14307;51.718;8.938;2022-07-29T09:32:01;25.17;;;23.30;;
26690;SDS011;14307;51.718;8.938;2022-07-29T09:34:33;25.42;;;23.83;;
26690;SDS011;14307;51.718;8.938;2022-07-29T09:37:00;25.35;;;23.73;;
26690;SDS011;14307;51.718;8.938;2022-07-29T09:41:58;25.20;;;23.60;;
26690;SDS011;14307;51.718;8.938;2022-07-29T09:44:40;26.70;;;24.50;;
26690;SDS011;14307;51.718;8.938;2022-07-29T09:47:12;26.52;;;25.02;;
26690;SDS011;14307;51.718;8.938;2022-07-29T09:49:52;27.45;;;25.67;;
26690;SDS011;14307;51.718;8.938;2022-07-29T09:52:21;24.35;;;22.67;;
26690;SDS011;14307;51.718;8.938;2022-07-29T09:54:47;26.13;;;24.42;;
26690;SDS011;14307;51.718;8.938;2022-07-29T09:57:21;26.77;;;24.98;;
26690;SDS011;14307;51.718;8.938;2022-07-29T10:02:39;28.20;;;26.27;;
26690;SDS011;14307;51.718;8.938;2022-07-29T10:07:49;27.75;;;25.95;;
26690;SDS011;14307;51.718;8.938;2022-07-29T10:12:56;29.60;;;27.45;;
26690;SDS011;14307;51.718;8.938;2022-07-29T10:15:33;30.05;;;28.00;;
26690;SDS011;14307;51.718;8.938;2022-07-29T10:18:07;28.25;;;26.55;;
26690;SDS011;14307;51.718;8.938;2022-07-29T10:20:34;27.40;;;25.83;;
26690;SDS011;14307;51.718;8.938;2022-07-29T10:23:01;28.00;;;26.17;;
26690;SDS011;14307;51.718;8.938;2022-07-29T10:25:29;27.75;;;25.90;;
26690;SDS011;14307;51.718;8.938;2022-07-29T10:27:56;27.45;;;25.63;;
26690;SDS011;14307;51.718;8.938;2022-07-29T10:30:24;27.33;;;25.77;;
26690;SDS011;14307;51.718;8.938;2022-07-29T10:44:15;26.42;;;24.52;;
26690;SDS011;14307;51.718;8.938;2022-07-29T10:46:48;27.30;;;25.58;;
26690;SDS011;14307;51.718;8.938;2022-07-29T10:49:20;27.65;;;25.85;;
26690;SDS011;14307;51.718;8.938;2022-07-29T10:57:12;28.02;;;26.27;;
26690;SDS011;14307;51.718;8.938;2022-07-29T10:59:43;29.13;;;27.13;;
26690;SDS011;14307;51.718;8.938;2022-07-29T11:05:21;28.52;;;26.52;;
26690;SDS011;14307;51.718;8.938;2022-07-29T11:10:53;29.92;;;27.88;;
26690;SDS011;14307;51.718;8.938;2022-07-29T11:13:57;28.13;;;26.08;;
26690;SDS011;14307;51.718;8.938;2022-07-29T11:16:24;27.80;;;25.88;;
26690;SDS011;14307;51.718;8.938;2022-07-29T11:21:40;27.27;;;25.38;;
26690;SDS011;14307;51.718;8.938;2022-07-29T11:24:29;26.63;;;24.73;;
26690;SDS011;14307;51.718;8.938;2022-07-29T11:27:07;26.85;;;24.70;;
26690;SDS011;14307;51.718;8.938;2022-07-29T11:29:36;26.13;;;24.50;;
26690;SDS011;14307;51.718;8.938;2022-07-29T11:32:09;27.13;;;25.13;;
26690;SDS011;14307;51.718;8.938;2022-07-29T11:34:43;27.30;;;25.55;;
26690;SDS011;14307;51.718;8.938;2022-07-29T11:50:16;31.35;;;29.38;;
26690;SDS011;14307;51.718;8.938;2022-07-29T11:52:53;30.65;;;28.55;;
26690;SDS011;14307;51.718;8.938;2022-07-29T11:55:22;28.15;;;26.42;;
26690;SDS011;14307;51.718;8.938;2022-07-29T11:57:58;28.40;;;26.70;;
26690;SDS011;14307;51.718;8.938;2022-07-29T12:00:33;28.70;;;26.95;;
26690;SDS011;14307;51.718;8.938;2022-07-29T12:03:02;29.45;;;27.55;;
26690;SDS011;14307;51.718;8.938;2022-07-29T12:10:46;30.05;;;28.15;;
26690;SDS011;14307;51.718;8.938;2022-07-29T12:13:15;32.72;;;30.40;;
26690;SDS011;14307;51.718;8.938;2022-07-29T12:15:52;31.02;;;28.92;;
26690;SDS011;14307;51.718;8.938;2022-07-29T12:18:20;30.65;;;28.55;;
26690;SDS011;14307;51.718;8.938;2022-07-29T12:20:56;29.40;;;27.60;;
26690;SDS011;14307;51.718;8.938;2022-07-29T12:23:24;28.85;;;26.95;;
26690;SDS011;14307;51.718;8.938;2022-07-29T12:25:54;29.15;;;27.20;;
26690;SDS011;14307;51.718;8.938;2022-07-29T12:28:21;31.02;;;28.63;;
26690;SDS011;14307;51.718;8.938;2022-07-29T12:30:53;31.27;;;29.15;;
26690;SDS011;14307;51.718;8.938;2022-07-29T12:33:24;27.60;;;25.85;;
26690;SDS011;14307;51.718;8.938;2022-07-29T12:35:54;30.45;;;28.23;;
26690;SDS011;14307;51.718;8.938;2022-07-29T12:38:32;30.67;;;28.85;;
26690;SDS011;14307;51.718;8.938;2022-07-29T12:41:03;30.23;;;28.25;;
26690;SDS011;14307;51.718;8.938;2022-07-29T12:43:30;30.30;;;28.38;;
26690;SDS011;14307;51.718;8.938;2022-07-29T12:45:57;30.20;;;28.25;;
26690;SDS011;14307;51.718;8.938;2022-07-29T12:48:41;30.60;;;28.15;;
26690;SDS011;14307;51.718;8.938;2022-07-29T12:51:09;30.27;;;27.92;;
26690;SDS011;14307;51.718;8.938;2022-07-29T12:53:38;30.50;;;28.63;;
26690;SDS011;14307;51.718;8.938;2022-07-29T12:56:15;30.85;;;28.80;;
26690;SDS011;14307;51.718;8.938;2022-07-29T12:59:15;30.20;;;28.00;;
26690;SDS011;14307;51.718;8.938;2022-07-29T13:01:47;29.70;;;27.80;;
26690;SDS011;14307;51.718;8.938;2022-07-29T13:04:32;30.50;;;28.27;;
26690;SDS011;14307;51.718;8.938;2022-07-29T13:07:00;29.08;;;27.23;;
26690;SDS011;14307;51.718;8.938;2022-07-29T13:09:51;30.30;;;28.10;;
26690;SDS011;14307;51.718;8.938;2022-07-29T13:12:18;29.67;;;27.98;;
26690;SDS011;14307;51.718;8.938;2022-07-29T13:14:45;31.27;;;29.20;;
26690;SDS011;14307;51.718;8.938;2022-07-29T13:22:20;31.00;;;28.63;;
26690;SDS011;14307;51.718;8.938;2022-07-29T13:27:26;28.55;;;26.38;;
26690;SDS011;14307;51.718;8.938;2022-07-29T13:29:56;29.10;;;27.40;;
26690;SDS011;14307;51.718;8.938;2022-07-29T13:32:24;30.40;;;28.20;;
26690;SDS011;14307;51.718;8.938;2022-07-29T13:34:58;29.48;;;27.27;;
26690;SDS011;14307;51.718;8.938;2022-07-29T13:37:27;31.08;;;28.80;;
26690;SDS011;14307;51.718;8.938;2022-07-29T13:39:56;30.98;;;28.95;;
26690;SDS011;14307;51.718;8.938;2022-07-29T13:42:23;30.50;;;28.58;;
26690;SDS011;14307;51.718;8.938;2022-07-29T13:44:51;31.65;;;29.73;;
26690;SDS011;14307;51.718;8.938;2022-07-29T13:47:18;31.48;;;29.42;;
26690;SDS011;14307;51.718;8.938;2022-07-29T13:49:46;29.80;;;27.92;;
26690;SDS011;14307;51.718;8.938;2022-07-29T13:52:13;30.45;;;28.65;;
26690;SDS011;14307;51.718;8.938;2022-07-29T13:54:42;30.83;;;29.05;;
26690;SDS011;14307;51.718;8.938;2022-07-29T13:57:09;31.70;;;29.65;;
26690;SDS011;14307;51.718;8.938;2022-07-29T13:59:37;32.53;;;30.27;;
26690;SDS011;14307;51.718;8.938;2022-07-29T14:02:08;32.22;;;30.20;;
26690;SDS011;14307;51.718;8.938;2022-07-29T14:04:36;31.45;;;29.33;;
26690;SDS011;14307;51.718;8.938;2022-07-29T14:07:05;31.75;;;29.73;;
26690;SDS011;14307;51.718;8.938;2022-07-29T14:09:33;32.42;;;30.40;;
26690;SDS011;14307;51.718;8.938;2022-07-29T14:12:07;32.50;;;30.30;;
26690;SDS011;14307;51.718;8.938;2022-07-29T14:14:34;31.55;;;29.15;;
26690;SDS011;14307;51.718;8.938;2022-07-29T14:17:02;31.98;;;30.08;;
26690;SDS011;14307;51.718;8.938;2022-07-29T14:19:29;31.25;;;29.13;;
26690;SDS011;14307;51.718;8.938;2022-07-29T14:21:58;30.10;;;28.40;;
26690;SDS011;14307;51.718;8.938;2022-07-29T14:24:25;30.63;;;28.40;;
26690;SDS011;14307;51.718;8.938;2022-07-29T14:26:52;33.53;;;30.95;;
26690;SDS011;14307;51.718;8.938;2022-07-29T14:29:19;32.92;;;30.70;;
26690;SDS011;14307;51.718;8.938;2022-07-29T14:31:46;31.40;;;29.17;;
26690;SDS011;14307;51.718;8.938;2022-07-29T14:34:12;30.83;;;28.75;;
26690;SDS011;14307;51.718;8.938;2022-07-29T14:36:42;30.40;;;28.33;;
26690;SDS011;14307;51.718;8.938;2022-07-29T14:39:09;33.38;;;31.30;;
26690;SDS011;14307;51.718;8.938;2022-07-29T14:41:36;33.42;;;31.40;;
26690;SDS011;14307;51.718;8.938;2022-07-29T14:44:04;34.00;;;32.05;;
26690;SDS011;14307;51.718;8.938;2022-07-29T14:46:30;36.30;;;34.00;;
26690;SDS011;14307;51.718;8.938;2022-07-29T14:48:57;34.47;;;32.38;;
26690;SDS011;14307;51.718;8.938;2022-07-29T14:51:24;34.88;;;32.97;;
26690;SDS011;14307;51.718;8.938;2022-07-29T14:53:57;34.80;;;32.80;;
26690;SDS011;14307;51.718;8.938;2022-07-29T14:56:24;33.80;;;31.70;;
26690;SDS011;14307;51.718;8.938;2022-07-29T14:59:11;33.60;;;31.58;;
26690;SDS011;14307;51.718;8.938;2022-07-29T15:01:38;35.80;;;33.35;;
26690;SDS011;14307;51.718;8.938;2022-07-29T15:04:05;34.75;;;32.47;;
26690;SDS011;14307;51.718;8.938;2022-07-29T15:06:32;34.45;;;32.28;;
26690;SDS011;14307;51.718;8.938;2022-07-29T15:08:58;33.92;;;31.90;;
26690;SDS011;14307;51.718;8.938;2022-07-29T15:11:25;35.00;;;32.90;;
26690;SDS011;14307;51.718;8.938;2022-07-29T15:13:52;36.25;;;34.00;;
26690;SDS011;14307;51.718;8.938;2022-07-29T15:16:18;35.72;;;33.30;;
26690;SDS011;14307;51.718;8.938;2022-07-29T15:18:45;35.72;;;33.42;;
26690;SDS011;14307;51.718;8.938;2022-07-29T15:21:12;37.50;;;34.10;;
26690;SDS011;14307;51.718;8.938;2022-07-29T15:23:39;36.50;;;33.90;;
26690;SDS011;14307;51.718;8.938;2022-07-29T15:26:06;35.70;;;33.28;;
26690;SDS011;14307;51.718;8.938;2022-07-29T15:28:33;37.45;;;35.05;;
26690;SDS011;14307;51.718;8.938;2022-07-29T15:30:59;36.13;;;33.90;;
26690;SDS011;14307;51.718;8.938;2022-07-29T15:33:26;37.47;;;34.88;;
26690;SDS011;14307;51.718;8.938;2022-07-29T15:35:55;36.03;;;33.58;;
26690;SDS011;14307;51.718;8.938;2022-07-29T15:38:22;34.45;;;32.50;;
26690;SDS011;14307;51.718;8.938;2022-07-29T15:40:54;32.20;;;30.02;;
26690;SDS011;14307;51.718;8.938;2022-07-29T15:43:21;32.53;;;30.55;;
26690;SDS011;14307;51.718;8.938;2022-07-29T15:45:48;32.97;;;31.05;;
26690;SDS011;14307;51.718;8.938;2022-07-29T15:48:37;32.40;;;30.45;;
26690;SDS011;14307;51.718;8.938;2022-07-29T15:51:04;33.20;;;31.17;;
26690;SDS011;14307;51.718;8.938;2022-07-29T15:53:31;31.50;;;29.48;;
26690;SDS011;14307;51.718;8.938;2022-07-29T15:56:00;29.15;;;27.45;;
26690;SDS011;14307;51.718;8.938;2022-07-29T15:58:27;31.55;;;28.92;;
26690;SDS011;14307;51.718;8.938;2022-07-29T16:00:54;30.83;;;28.83;;
26690;SDS011;14307;51.718;8.938;2022-07-29T16:03:21;30.55;;;28.27;;
26690;SDS011;14307;51.718;8.938;2022-07-29T16:05:48;30.35;;;27.95;;
26690;SDS011;14307;51.718;8.938;2022-07-29T16:08:14;29.42;;;27.45;;